sensor_id;sensor_type;location;lat;lon;timestamp;P1;durP1;ratioP1;P2;durP2;ratioP2
79460;SDS011;68929;42.666;23.324;2024-01-15T00:02:08;46.95;;;29.65;;
79460;SDS011;68929;42.666;23.324;2024-01-15T00:04:38;47.40;;;29.83;;
79460;SDS011;68929;42.666;23.324;2024-01-15T00:07:04;45.83;;;28.25;;
79460;SDS011;68929;42.666;23.324;2024-01-15T00:09:30;46.88;;;29.80;;
79460;SDS011;68929;42.666;23.324;2024-01-15T00:11:55;50.65;;;29.65;;
79460;SDS011;68929;42.666;23.324;2024-01-15T00:14:22;47.00;;;30.42;;
79460;SDS011;68929;42.666;23.324;2024-01-15T00:16:47;45.65;;;28.95;;
79460;SDS011;68929;42.666;23.324;2024-01-15T00:19:15;50.47;;;31.33;;
79460;SDS011;68929;42.666;23.324;2024-01-15T00:21:41;50.45;;;32.30;;
79460;SDS011;68929;42.666;23.324;2024-01-15T00:24:07;51.75;;;31.48;;
79460;SDS011;68929;42.666;23.324;2024-01-15T00:26:32;47.10;;;30.55;;
79460;SDS011;68929;42.666;23.324;2024-01-15T00:28:58;49.35;;;31.45;;
79460;SDS011;68929;42.666;23.324;2024-01-15T00:31:23;50.13;;;32.17;;
79460;SDS011;68929;42.666;23.324;2024-01-15T00:33:49;46.15;;;29.98;;
79460;SDS011;68929;42.666;23.324;2024-01-15T00:36:14;51.75;;;32.00;;
79460;SDS011;68929;42.666;23.324;2024-01-15T00:38:41;48.08;;;30.50;;
79460;SDS011;68929;42.666;23.324;2024-01-15T00:41:07;50.00;;;32.58;;
79460;SDS011;68929;42.666;23.324;2024-01-15T00:43:33;48.83;;;31.95;;
79460;SDS011;68929;42.666;23.324;2024-01-15T00:46:01;42.10;;;27.65;;
79460;SDS011;68929;42.666;23.324;2024-01-15T00:48:27;45.72;;;30.48;;
79460;SDS011;68929;42.666;23.324;2024-01-15T00:50:53;50.95;;;31.95;;
79460;SDS011;68929;42.666;23.324;2024-01-15T00:53:19;48.08;;;31.55;;
79460;SDS011;68929;42.666;23.324;2024-01-15T00:55:47;56.03;;;35.67;;
79460;SDS011;68929;42.666;23.324;2024-01-15T00:58:13;55.95;;;37.33;;
79460;SDS011;68929;42.666;23.324;2024-01-15T01:00:38;48.58;;;29.77;;
79460;SDS011;68929;42.666;23.324;2024-01-15T01:03:03;50.50;;;33.35;;
79460;SDS011;68929;42.666;23.324;2024-01-15T01:05:29;50.53;;;31.38;;
79460;SDS011;68929;42.666;23.324;2024-01-15T01:07:55;51.78;;;31.63;;
79460;SDS011;68929;42.666;23.324;2024-01-15T01:10:20;51.53;;;32.50;;
79460;SDS011;68929;42.666;23.324;2024-01-15T01:12:46;49.47;;;33.72;;
79460;SDS011;68929;42.666;23.324;2024-01-15T01:15:11;48.95;;;32.20;;
79460;SDS011;68929;42.666;23.324;2024-01-15T01:17:37;44.60;;;29.40;;
79460;SDS011;68929;42.666;23.324;2024-01-15T01:20:02;46.58;;;29.25;;
79460;SDS011;68929;42.666;23.324;2024-01-15T01:22:29;43.67;;;29.13;;
79460;SDS011;68929;42.666;23.324;2024-01-15T01:24:55;43.65;;;28.88;;
79460;SDS011;68929;42.666;23.324;2024-01-15T01:27:21;46.70;;;31.02;;
79460;SDS011;68929;42.666;23.324;2024-01-15T01:29:46;48.72;;;32.00;;
79460;SDS011;68929;42.666;23.324;2024-01-15T01:32:12;52.15;;;31.75;;
79460;SDS011;68929;42.666;23.324;2024-01-15T01:34:41;51.17;;;31.90;;
79460;SDS011;68929;42.666;23.324;2024-01-15T01:37:12;47.58;;;29.85;;
79460;SDS011;68929;42.666;23.324;2024-01-15T01:39:40;46.55;;;29.45;;
79460;SDS011;68929;42.666;23.324;2024-01-15T01:42:06;49.67;;;29.70;;
79460;SDS011;68929;42.666;23.324;2024-01-15T01:44:31;52.40;;;31.75;;
79460;SDS011;68929;42.666;23.324;2024-01-15T01:46:58;48.15;;;29.80;;
79460;SDS011;68929;42.666;23.324;2024-01-15T01:49:24;44.03;;;28.60;;
79460;SDS011;68929;42.666;23.324;2024-01-15T01:51:51;51.60;;;32.60;;
79460;SDS011;68929;42.666;23.324;2024-01-15T01:54:18;55.85;;;37.00;;
79460;SDS011;68929;42.666;23.324;2024-01-15T01:56:44;56.25;;;35.47;;
79460;SDS011;68929;42.666;23.324;2024-01-15T01:59:12;51.20;;;32.92;;
79460;SDS011;68929;42.666;23.324;2024-01-15T02:01:38;49.60;;;31.55;;
79460;SDS011;68929;42.666;23.324;2024-01-15T02:04:04;53.22;;;33.35;;
79460;SDS011;68929;42.666;23.324;2024-01-15T02:06:30;48.05;;;29.60;;
79460;SDS011;68929;42.666;23.324;2024-01-15T02:08:55;47.05;;;31.92;;
79460;SDS011;68929;42.666;23.324;2024-01-15T02:11:21;47.15;;;30.73;;
79460;SDS011;68929;42.666;23.324;2024-01-15T02:13:46;44.22;;;29.70;;
79460;SDS011;68929;42.666;23.324;2024-01-15T02:16:12;44.17;;;29.52;;
79460;SDS011;68929;42.666;23.324;2024-01-15T02:18:41;47.70;;;29.67;;
79460;SDS011;68929;42.666;23.324;2024-01-15T02:21:08;46.33;;;29.92;;
79460;SDS011;68929;42.666;23.324;2024-01-15T02:23:34;49.42;;;32.03;;
79460;SDS011;68929;42.666;23.324;2024-01-15T02:26:00;42.35;;;28.85;;
79460;SDS011;68929;42.666;23.324;2024-01-15T02:28:26;49.15;;;32.03;;
79460;SDS011;68929;42.666;23.324;2024-01-15T02:30:51;39.60;;;26.80;;
79460;SDS011;68929;42.666;23.324;2024-01-15T02:33:17;45.35;;;29.17;;
79460;SDS011;68929;42.666;23.324;2024-01-15T02:35:42;44.60;;;27.15;;
79460;SDS011;68929;42.666;23.324;2024-01-15T02:38:08;46.03;;;28.58;;
79460;SDS011;68929;42.666;23.324;2024-01-15T02:40:34;46.65;;;30.23;;
79460;SDS011;68929;42.666;23.324;2024-01-15T02:43:00;46.80;;;29.48;;
79460;SDS011;68929;42.666;23.324;2024-01-15T02:45:25;37.65;;;25.15;;
79460;SDS011;68929;42.666;23.324;2024-01-15T02:47:51;40.63;;;27.02;;
79460;SDS011;68929;42.666;23.324;2024-01-15T02:50:17;45.17;;;27.35;;
79460;SDS011;68929;42.666;23.324;2024-01-15T02:52:42;45.83;;;28.35;;
79460;SDS011;68929;42.666;23.324;2024-01-15T02:55:08;41.80;;;26.33;;
79460;SDS011;68929;42.666;23.324;2024-01-15T02:57:34;36.95;;;24.00;;
79460;SDS011;68929;42.666;23.324;2024-01-15T02:59:59;35.67;;;23.48;;
79460;SDS011;68929;42.666;23.324;2024-01-15T03:02:25;37.88;;;25.42;;
79460;SDS011;68929;42.666;23.324;2024-01-15T03:04:51;39.63;;;25.15;;
79460;SDS011;68929;42.666;23.324;2024-01-15T03:07:17;39.28;;;25.00;;
79460;SDS011;68929;42.666;23.324;2024-01-15T03:09:43;37.08;;;22.75;;
79460;SDS011;68929;42.666;23.324;2024-01-15T03:12:08;41.85;;;24.50;;
79460;SDS011;68929;42.666;23.324;2024-01-15T03:14:34;36.88;;;25.65;;
79460;SDS011;68929;42.666;23.324;2024-01-15T03:17:00;37.22;;;23.85;;
79460;SDS011;68929;42.666;23.324;2024-01-15T03:19:26;37.65;;;25.52;;
79460;SDS011;68929;42.666;23.324;2024-01-15T03:21:52;41.08;;;27.00;;
79460;SDS011;68929;42.666;23.324;2024-01-15T03:24:17;39.30;;;27.30;;
79460;SDS011;68929;42.666;23.324;2024-01-15T03:26:43;37.25;;;25.52;;
79460;SDS011;68929;42.666;23.324;2024-01-15T03:29:08;41.17;;;27.33;;
79460;SDS011;68929;42.666;23.324;2024-01-15T03:31:34;48.22;;;30.08;;
79460;SDS011;68929;42.666;23.324;2024-01-15T03:33:59;45.70;;;28.60;;
79460;SDS011;68929;42.666;23.324;2024-01-15T03:36:25;49.05;;;31.17;;
79460;SDS011;68929;42.666;23.324;2024-01-15T03:38:50;56.10;;;36.95;;
79460;SDS011;68929;42.666;23.324;2024-01-15T03:41:16;57.20;;;38.08;;
79460;SDS011;68929;42.666;23.324;2024-01-15T03:43:41;52.35;;;35.22;;
79460;SDS011;68929;42.666;23.324;2024-01-15T03:46:07;53.92;;;35.22;;
79460;SDS011;68929;42.666;23.324;2024-01-15T03:48:32;52.92;;;32.40;;
79460;SDS011;68929;42.666;23.324;2024-01-15T03:50:58;56.38;;;36.20;;
79460;SDS011;68929;42.666;23.324;2024-01-15T03:53:23;54.85;;;37.47;;
79460;SDS011;68929;42.666;23.324;2024-01-15T03:55:49;42.42;;;29.85;;
79460;SDS011;68929;42.666;23.324;2024-01-15T03:58:15;37.65;;;27.25;;
79460;SDS011;68929;42.666;23.324;2024-01-15T04:00:41;46.78;;;30.08;;
79460;SDS011;68929;42.666;23.324;2024-01-15T04:03:07;51.53;;;32.20;;
79460;SDS011;68929;42.666;23.324;2024-01-15T04:05:33;41.83;;;27.77;;
79460;SDS011;68929;42.666;23.324;2024-01-15T04:07:58;53.58;;;35.78;;
79460;SDS011;68929;42.666;23.324;2024-01-15T04:10:24;58.17;;;36.50;;
79460;SDS011;68929;42.666;23.324;2024-01-15T04:12:49;43.78;;;27.50;;
79460;SDS011;68929;42.666;23.324;2024-01-15T04:15:15;64.68;;;41.70;;
79460;SDS011;68929;42.666;23.324;2024-01-15T04:17:40;39.10;;;27.50;;
79460;SDS011;68929;42.666;23.324;2024-01-15T04:20:06;45.03;;;31.75;;
79460;SDS011;68929;42.666;23.324;2024-01-15T04:22:33;52.45;;;31.85;;
79460;SDS011;68929;42.666;23.324;2024-01-15T04:25:00;58.50;;;37.22;;
79460;SDS011;68929;42.666;23.324;2024-01-15T04:27:25;56.92;;;36.03;;
79460;SDS011;68929;42.666;23.324;2024-01-15T04:29:51;64.95;;;38.55;;
79460;SDS011;68929;42.666;23.324;2024-01-15T04:32:16;59.65;;;37.88;;
79460;SDS011;68929;42.666;23.324;2024-01-15T04:34:42;61.85;;;39.53;;
79460;SDS011;68929;42.666;23.324;2024-01-15T04:37:07;62.97;;;39.38;;
79460;SDS011;68929;42.666;23.324;2024-01-15T04:39:33;66.55;;;41.53;;
79460;SDS011;68929;42.666;23.324;2024-01-15T04:41:58;67.97;;;39.88;;
79460;SDS011;68929;42.666;23.324;2024-01-15T04:44:24;62.83;;;36.22;;
79460;SDS011;68929;42.666;23.324;2024-01-15T04:46:49;63.67;;;36.42;;
79460;SDS011;68929;42.666;23.324;2024-01-15T04:49:14;67.25;;;39.92;;
79460;SDS011;68929;42.666;23.324;2024-01-15T04:51:40;70.78;;;42.50;;
79460;SDS011;68929;42.666;23.324;2024-01-15T04:54:05;77.15;;;41.28;;
79460;SDS011;68929;42.666;23.324;2024-01-15T04:56:30;65.63;;;38.22;;
79460;SDS011;68929;42.666;23.324;2024-01-15T04:58:56;49.33;;;28.02;;
79460;SDS011;68929;42.666;23.324;2024-01-15T05:01:22;78.45;;;49.35;;
79460;SDS011;68929;42.666;23.324;2024-01-15T05:03:50;66.18;;;37.50;;
79460;SDS011;68929;42.666;23.324;2024-01-15T05:06:15;56.40;;;32.85;;
79460;SDS011;68929;42.666;23.324;2024-01-15T05:08:41;49.60;;;29.85;;
79460;SDS011;68929;42.666;23.324;2024-01-15T05:11:06;43.97;;;28.35;;
79460;SDS011;68929;42.666;23.324;2024-01-15T05:13:32;48.40;;;31.17;;
79460;SDS011;68929;42.666;23.324;2024-01-15T05:15:57;46.60;;;28.95;;
79460;SDS011;68929;42.666;23.324;2024-01-15T05:18:23;48.28;;;30.30;;
79460;SDS011;68929;42.666;23.324;2024-01-15T05:20:48;61.60;;;39.00;;
79460;SDS011;68929;42.666;23.324;2024-01-15T05:23:14;61.13;;;37.50;;
79460;SDS011;68929;42.666;23.324;2024-01-15T05:25:39;68.25;;;41.53;;
79460;SDS011;68929;42.666;23.324;2024-01-15T05:28:05;43.75;;;30.48;;
79460;SDS011;68929;42.666;23.324;2024-01-15T05:30:30;65.15;;;38.13;;
79460;SDS011;68929;42.666;23.324;2024-01-15T05:32:56;67.85;;;43.97;;
79460;SDS011;68929;42.666;23.324;2024-01-15T05:35:22;68.32;;;42.15;;
79460;SDS011;68929;42.666;23.324;2024-01-15T05:37:50;81.30;;;47.75;;
79460;SDS011;68929;42.666;23.324;2024-01-15T05:40:16;91.95;;;52.00;;
79460;SDS011;68929;42.666;23.324;2024-01-15T05:42:42;104.90;;;60.83;;
79460;SDS011;68929;42.666;23.324;2024-01-15T05:45:07;99.07;;;57.97;;
79460;SDS011;68929;42.666;23.324;2024-01-15T05:47:33;104.03;;;59.47;;
79460;SDS011;68929;42.666;23.324;2024-01-15T05:50:00;98.57;;;55.72;;
79460;SDS011;68929;42.666;23.324;2024-01-15T05:52:26;108.10;;;63.38;;
79460;SDS011;68929;42.666;23.324;2024-01-15T05:54:54;75.28;;;45.38;;
79460;SDS011;68929;42.666;23.324;2024-01-15T05:57:19;106.32;;;58.30;;
79460;SDS011;68929;42.666;23.324;2024-01-15T05:59:45;132.20;;;72.80;;
79460;SDS011;68929;42.666;23.324;2024-01-15T06:02:10;121.03;;;69.65;;
79460;SDS011;68929;42.666;23.324;2024-01-15T06:04:36;131.60;;;78.45;;
79460;SDS011;68929;42.666;23.324;2024-01-15T06:07:02;124.53;;;67.82;;
79460;SDS011;68929;42.666;23.324;2024-01-15T06:09:27;102.55;;;58.40;;
79460;SDS011;68929;42.666;23.324;2024-01-15T06:11:53;117.72;;;66.75;;
79460;SDS011;68929;42.666;23.324;2024-01-15T06:14:19;111.20;;;64.10;;
79460;SDS011;68929;42.666;23.324;2024-01-15T06:16:45;78.95;;;45.83;;
79460;SDS011;68929;42.666;23.324;2024-01-15T06:19:12;98.97;;;57.25;;
79460;SDS011;68929;42.666;23.324;2024-01-15T06:21:37;107.78;;;64.80;;
79460;SDS011;68929;42.666;23.324;2024-01-15T06:24:03;92.50;;;54.80;;
79460;SDS011;68929;42.666;23.324;2024-01-15T06:26:29;101.80;;;60.88;;
79460;SDS011;68929;42.666;23.324;2024-01-15T06:28:54;115.10;;;69.32;;
79460;SDS011;68929;42.666;23.324;2024-01-15T06:31:20;103.90;;;60.13;;
79460;SDS011;68929;42.666;23.324;2024-01-15T06:33:46;114.75;;;72.45;;
79460;SDS011;68929;42.666;23.324;2024-01-15T06:36:13;110.80;;;67.18;;
79460;SDS011;68929;42.666;23.324;2024-01-15T06:38:39;122.03;;;75.63;;
79460;SDS011;68929;42.666;23.324;2024-01-15T06:41:05;115.70;;;69.20;;
79460;SDS011;68929;42.666;23.324;2024-01-15T06:43:30;107.38;;;64.15;;
79460;SDS011;68929;42.666;23.324;2024-01-15T06:45:56;133.13;;;76.30;;
79460;SDS011;68929;42.666;23.324;2024-01-15T06:48:21;139.95;;;80.55;;
79460;SDS011;68929;42.666;23.324;2024-01-15T06:50:47;120.45;;;73.28;;
79460;SDS011;68929;42.666;23.324;2024-01-15T06:53:12;134.60;;;78.88;;
79460;SDS011;68929;42.666;23.324;2024-01-15T06:55:38;136.63;;;82.15;;
79460;SDS011;68929;42.666;23.324;2024-01-15T06:58:22;97.15;;;57.08;;
79460;SDS011;68929;42.666;23.324;2024-01-15T07:00:52;109.15;;;65.80;;
79460;SDS011;68929;42.666;23.324;2024-01-15T07:03:20;120.35;;;73.55;;
79460;SDS011;68929;42.666;23.324;2024-01-15T07:05:45;87.05;;;53.65;;
79460;SDS011;68929;42.666;23.324;2024-01-15T07:08:10;131.82;;;81.43;;
79460;SDS011;68929;42.666;23.324;2024-01-15T07:10:36;119.32;;;73.25;;
79460;SDS011;68929;42.666;23.324;2024-01-15T07:13:01;120.13;;;73.85;;
79460;SDS011;68929;42.666;23.324;2024-01-15T07:15:27;124.75;;;77.22;;
79460;SDS011;68929;42.666;23.324;2024-01-15T07:17:52;126.30;;;76.22;;
79460;SDS011;68929;42.666;23.324;2024-01-15T07:20:18;118.43;;;68.07;;
79460;SDS011;68929;42.666;23.324;2024-01-15T07:22:44;117.43;;;68.75;;
79460;SDS011;68929;42.666;23.324;2024-01-15T07:25:10;90.57;;;57.85;;
79460;SDS011;68929;42.666;23.324;2024-01-15T07:27:40;113.50;;;65.53;;
79460;SDS011;68929;42.666;23.324;2024-01-15T07:30:10;106.47;;;62.10;;
79460;SDS011;68929;42.666;23.324;2024-01-15T07:32:41;91.20;;;57.20;;
79460;SDS011;68929;42.666;23.324;2024-01-15T07:35:07;109.70;;;62.65;;
79460;SDS011;68929;42.666;23.324;2024-01-15T07:37:41;100.63;;;62.65;;
79460;SDS011;68929;42.666;23.324;2024-01-15T07:40:06;78.35;;;49.10;;
79460;SDS011;68929;42.666;23.324;2024-01-15T07:42:38;99.20;;;60.65;;
79460;SDS011;68929;42.666;23.324;2024-01-15T07:45:10;101.22;;;60.13;;
79460;SDS011;68929;42.666;23.324;2024-01-15T07:47:36;112.50;;;66.70;;
79460;SDS011;68929;42.666;23.324;2024-01-15T07:50:02;109.78;;;66.32;;
79460;SDS011;68929;42.666;23.324;2024-01-15T07:52:28;81.90;;;49.60;;
79460;SDS011;68929;42.666;23.324;2024-01-15T07:54:53;116.35;;;65.45;;
79460;SDS011;68929;42.666;23.324;2024-01-15T07:57:20;79.30;;;46.95;;
79460;SDS011;68929;42.666;23.324;2024-01-15T07:59:51;57.42;;;35.85;;
79460;SDS011;68929;42.666;23.324;2024-01-15T08:02:22;60.17;;;38.75;;
79460;SDS011;68929;42.666;23.324;2024-01-15T08:04:48;69.18;;;40.85;;
79460;SDS011;68929;42.666;23.324;2024-01-15T08:07:17;81.30;;;46.60;;
79460;SDS011;68929;42.666;23.324;2024-01-15T08:09:46;60.60;;;38.97;;
79460;SDS011;68929;42.666;23.324;2024-01-15T08:12:13;73.30;;;45.63;;
79460;SDS011;68929;42.666;23.324;2024-01-15T08:14:38;70.50;;;43.55;;
79460;SDS011;68929;42.666;23.324;2024-01-15T08:17:03;78.13;;;50.58;;
79460;SDS011;68929;42.666;23.324;2024-01-15T08:19:29;68.38;;;43.38;;
79460;SDS011;68929;42.666;23.324;2024-01-15T08:21:55;72.45;;;46.08;;
79460;SDS011;68929;42.666;23.324;2024-01-15T08:24:20;74.82;;;45.85;;
79460;SDS011;68929;42.666;23.324;2024-01-15T08:26:46;70.03;;;43.60;;
79460;SDS011;68929;42.666;23.324;2024-01-15T08:29:11;84.30;;;50.05;;
79460;SDS011;68929;42.666;23.324;2024-01-15T08:31:41;83.03;;;49.55;;
79460;SDS011;68929;42.666;23.324;2024-01-15T08:34:10;64.35;;;41.40;;
79460;SDS011;68929;42.666;23.324;2024-01-15T08:36:36;71.60;;;46.55;;
79460;SDS011;68929;42.666;23.324;2024-01-15T08:39:02;87.25;;;51.85;;
79460;SDS011;68929;42.666;23.324;2024-01-15T08:41:34;73.78;;;45.38;;
79460;SDS011;68929;42.666;23.324;2024-01-15T08:44:01;68.13;;;40.75;;
79460;SDS011;68929;42.666;23.324;2024-01-15T08:46:27;64.25;;;42.28;;
79460;SDS011;68929;42.666;23.324;2024-01-15T08:48:58;67.10;;;40.88;;
79460;SDS011;68929;42.666;23.324;2024-01-15T08:51:23;66.93;;;40.03;;
79460;SDS011;68929;42.666;23.324;2024-01-15T08:53:49;75.70;;;41.97;;
79460;SDS011;68929;42.666;23.324;2024-01-15T08:56:14;59.05;;;35.00;;
79460;SDS011;68929;42.666;23.324;2024-01-15T08:58:40;66.60;;;39.70;;
79460;SDS011;68929;42.666;23.324;2024-01-15T09:01:06;71.40;;;41.95;;
79460;SDS011;68929;42.666;23.324;2024-01-15T09:03:32;69.32;;;40.92;;
79460;SDS011;68929;42.666;23.324;2024-01-15T09:05:59;81.43;;;47.28;;
79460;SDS011;68929;42.666;23.324;2024-01-15T09:08:26;72.85;;;44.63;;
79460;SDS011;68929;42.666;23.324;2024-01-15T09:10:52;75.72;;;43.13;;
79460;SDS011;68929;42.666;23.324;2024-01-15T09:13:18;79.60;;;44.78;;
79460;SDS011;68929;42.666;23.324;2024-01-15T09:15:48;76.05;;;41.45;;
79460;SDS011;68929;42.666;23.324;2024-01-15T09:18:19;63.53;;;37.72;;
79460;SDS011;68929;42.666;23.324;2024-01-15T09:20:45;76.95;;;41.63;;
79460;SDS011;68929;42.666;23.324;2024-01-15T09:23:13;68.47;;;40.60;;
79460;SDS011;68929;42.666;23.324;2024-01-15T09:25:43;67.75;;;39.78;;
79460;SDS011;68929;42.666;23.324;2024-01-15T09:28:08;69.47;;;41.22;;
79460;SDS011;68929;42.666;23.324;2024-01-15T09:30:34;69.38;;;39.67;;
79460;SDS011;68929;42.666;23.324;2024-01-15T09:32:59;65.32;;;40.50;;
79460;SDS011;68929;42.666;23.324;2024-01-15T09:35:24;55.22;;;35.20;;
79460;SDS011;68929;42.666;23.324;2024-01-15T09:37:50;71.60;;;40.53;;
79460;SDS011;68929;42.666;23.324;2024-01-15T09:40:15;78.57;;;43.50;;
79460;SDS011;68929;42.666;23.324;2024-01-15T09:42:41;80.53;;;50.03;;
79460;SDS011;68929;42.666;23.324;2024-01-15T09:45:08;55.15;;;34.13;;
79460;SDS011;68929;42.666;23.324;2024-01-15T09:47:35;83.05;;;46.65;;
79460;SDS011;68929;42.666;23.324;2024-01-15T09:50:01;85.75;;;52.15;;
79460;SDS011;68929;42.666;23.324;2024-01-15T09:52:28;68.50;;;43.20;;
79460;SDS011;68929;42.666;23.324;2024-01-15T09:55:19;72.00;;;44.85;;
79460;SDS011;68929;42.666;23.324;2024-01-15T09:57:45;80.43;;;49.90;;
79460;SDS011;68929;42.666;23.324;2024-01-15T10:00:11;70.10;;;40.90;;
79460;SDS011;68929;42.666;23.324;2024-01-15T10:02:37;120.15;;;75.82;;
79460;SDS011;68929;42.666;23.324;2024-01-15T10:05:03;136.13;;;86.38;;
79460;SDS011;68929;42.666;23.324;2024-01-15T10:07:29;108.55;;;68.60;;
79460;SDS011;68929;42.666;23.324;2024-01-15T10:09:54;129.70;;;80.97;;
79460;SDS011;68929;42.666;23.324;2024-01-15T10:12:25;84.93;;;54.97;;
79460;SDS011;68929;42.666;23.324;2024-01-15T10:14:52;133.00;;;83.13;;
79460;SDS011;68929;42.666;23.324;2024-01-15T10:17:26;94.93;;;58.92;;
79460;SDS011;68929;42.666;23.324;2024-01-15T10:19:56;118.65;;;74.72;;
79460;SDS011;68929;42.666;23.324;2024-01-15T10:22:22;112.88;;;68.57;;
79460;SDS011;68929;42.666;23.324;2024-01-15T10:24:48;123.18;;;79.85;;
79460;SDS011;68929;42.666;23.324;2024-01-15T10:27:14;83.93;;;57.10;;
79460;SDS011;68929;42.666;23.324;2024-01-15T10:29:40;49.97;;;32.97;;
79460;SDS011;68929;42.666;23.324;2024-01-15T10:32:07;59.03;;;36.70;;
79460;SDS011;68929;42.666;23.324;2024-01-15T10:34:37;59.40;;;38.15;;
79460;SDS011;68929;42.666;23.324;2024-01-15T10:37:04;78.30;;;48.42;;
79460;SDS011;68929;42.666;23.324;2024-01-15T10:39:32;74.00;;;47.58;;
79460;SDS011;68929;42.666;23.324;2024-01-15T10:41:58;54.45;;;34.47;;
79460;SDS011;68929;42.666;23.324;2024-01-15T10:44:29;56.85;;;34.35;;
79460;SDS011;68929;42.666;23.324;2024-01-15T10:46:59;63.22;;;38.05;;
79460;SDS011;68929;42.666;23.324;2024-01-15T10:49:31;75.18;;;47.10;;
79460;SDS011;68929;42.666;23.324;2024-01-15T10:52:19;52.80;;;33.20;;
79460;SDS011;68929;42.666;23.324;2024-01-15T10:54:44;70.45;;;43.65;;
79460;SDS011;68929;42.666;23.324;2024-01-15T10:57:12;51.97;;;34.72;;
79460;SDS011;68929;42.666;23.324;2024-01-15T10:59:40;46.97;;;31.60;;
79460;SDS011;68929;42.666;23.324;2024-01-15T11:02:08;67.03;;;40.83;;
79460;SDS011;68929;42.666;23.324;2024-01-15T11:04:35;56.55;;;37.65;;
79460;SDS011;68929;42.666;23.324;2024-01-15T11:07:01;66.53;;;40.88;;
79460;SDS011;68929;42.666;23.324;2024-01-15T11:09:28;52.28;;;32.97;;
79460;SDS011;68929;42.666;23.324;2024-01-15T11:12:11;48.17;;;30.23;;
79460;SDS011;68929;42.666;23.324;2024-01-15T11:14:49;66.45;;;42.08;;
79460;SDS011;68929;42.666;23.324;2024-01-15T11:17:16;46.60;;;32.53;;
79460;SDS011;68929;42.666;23.324;2024-01-15T11:19:43;55.78;;;36.28;;
79460;SDS011;68929;42.666;23.324;2024-01-15T11:24:54;42.08;;;29.08;;
79460;SDS011;68929;42.666;23.324;2024-01-15T11:27:39;46.05;;;31.90;;
79460;SDS011;68929;42.666;23.324;2024-01-15T11:30:16;65.25;;;41.83;;
79460;SDS011;68929;42.666;23.324;2024-01-15T11:32:42;45.60;;;30.73;;
79460;SDS011;68929;42.666;23.324;2024-01-15T11:35:08;55.97;;;35.20;;
79460;SDS011;68929;42.666;23.324;2024-01-15T11:40:22;45.63;;;29.13;;
79460;SDS011;68929;42.666;23.324;2024-01-15T11:42:48;48.50;;;32.75;;
79460;SDS011;68929;42.666;23.324;2024-01-15T11:45:21;40.80;;;26.20;;
79460;SDS011;68929;42.666;23.324;2024-01-15T11:50:49;57.65;;;35.88;;
79460;SDS011;68929;42.666;23.324;2024-01-15T11:55:53;41.22;;;28.08;;
79460;SDS011;68929;42.666;23.324;2024-01-15T11:58:23;35.47;;;24.77;;
79460;SDS011;68929;42.666;23.324;2024-01-15T12:00:51;36.95;;;22.95;;
79460;SDS011;68929;42.666;23.324;2024-01-15T12:03:17;24.55;;;17.23;;
79460;SDS011;68929;42.666;23.324;2024-01-15T12:05:53;26.33;;;19.30;;
79460;SDS011;68929;42.666;23.324;2024-01-15T12:08:23;29.05;;;18.63;;
79460;SDS011;68929;42.666;23.324;2024-01-15T12:10:49;30.95;;;19.02;;
79460;SDS011;68929;42.666;23.324;2024-01-15T12:13:14;33.67;;;22.08;;
79460;SDS011;68929;42.666;23.324;2024-01-15T12:15:41;39.78;;;26.10;;
79460;SDS011;68929;42.666;23.324;2024-01-15T12:18:11;31.30;;;23.55;;
79460;SDS011;68929;42.666;23.324;2024-01-15T12:20:44;43.47;;;27.20;;
79460;SDS011;68929;42.666;23.324;2024-01-15T12:23:11;44.95;;;26.23;;
79460;SDS011;68929;42.666;23.324;2024-01-15T12:25:39;34.83;;;24.38;;
79460;SDS011;68929;42.666;23.324;2024-01-15T12:28:05;44.83;;;28.65;;
79460;SDS011;68929;42.666;23.324;2024-01-15T12:30:37;46.45;;;29.45;;
79460;SDS011;68929;42.666;23.324;2024-01-15T12:33:13;50.15;;;31.05;;
79460;SDS011;68929;42.666;23.324;2024-01-15T12:35:39;42.50;;;27.75;;
79460;SDS011;68929;42.666;23.324;2024-01-15T12:38:04;41.08;;;27.17;;
79460;SDS011;68929;42.666;23.324;2024-01-15T12:40:31;42.22;;;25.55;;
79460;SDS011;68929;42.666;23.324;2024-01-15T12:43:01;39.10;;;23.58;;
79460;SDS011;68929;42.666;23.324;2024-01-15T12:45:26;39.92;;;25.40;;
79460;SDS011;68929;42.666;23.324;2024-01-15T12:47:53;38.65;;;25.48;;
79460;SDS011;68929;42.666;23.324;2024-01-15T12:50:18;41.97;;;25.25;;
79460;SDS011;68929;42.666;23.324;2024-01-15T12:52:44;33.88;;;21.52;;
79460;SDS011;68929;42.666;23.324;2024-01-15T12:55:09;33.20;;;18.80;;
79460;SDS011;68929;42.666;23.324;2024-01-15T12:57:35;33.63;;;23.58;;
79460;SDS011;68929;42.666;23.324;2024-01-15T13:00:02;30.77;;;18.85;;
79460;SDS011;68929;42.666;23.324;2024-01-15T13:02:48;43.90;;;26.23;;
79460;SDS011;68929;42.666;23.324;2024-01-15T13:05:14;45.50;;;25.33;;
79460;SDS011;68929;42.666;23.324;2024-01-15T13:07:41;33.95;;;21.58;;
79460;SDS011;68929;42.666;23.324;2024-01-15T13:10:07;38.63;;;26.30;;
79460;SDS011;68929;42.666;23.324;2024-01-15T13:12:35;41.53;;;23.95;;
79460;SDS011;68929;42.666;23.324;2024-01-15T13:15:03;44.28;;;26.00;;
79460;SDS011;68929;42.666;23.324;2024-01-15T13:17:29;44.42;;;25.90;;
79460;SDS011;68929;42.666;23.324;2024-01-15T13:19:57;44.88;;;25.00;;
79460;SDS011;68929;42.666;23.324;2024-01-15T13:22:23;42.97;;;27.50;;
79460;SDS011;68929;42.666;23.324;2024-01-15T13:24:54;39.58;;;24.73;;
79460;SDS011;68929;42.666;23.324;2024-01-15T13:27:20;43.17;;;27.30;;
79460;SDS011;68929;42.666;23.324;2024-01-15T13:29:46;49.33;;;28.85;;
79460;SDS011;68929;42.666;23.324;2024-01-15T13:32:11;50.83;;;29.88;;
79460;SDS011;68929;42.666;23.324;2024-01-15T13:34:42;36.65;;;21.45;;
79460;SDS011;68929;42.666;23.324;2024-01-15T13:37:08;34.22;;;21.38;;
79460;SDS011;68929;42.666;23.324;2024-01-15T13:39:35;52.20;;;28.25;;
79460;SDS011;68929;42.666;23.324;2024-01-15T13:42:01;47.53;;;29.58;;
79460;SDS011;68929;42.666;23.324;2024-01-15T13:44:27;38.50;;;25.65;;
79460;SDS011;68929;42.666;23.324;2024-01-15T13:46:53;43.28;;;24.60;;
79460;SDS011;68929;42.666;23.324;2024-01-15T13:49:18;48.22;;;28.85;;
79460;SDS011;68929;42.666;23.324;2024-01-15T13:51:44;45.55;;;27.60;;
79460;SDS011;68929;42.666;23.324;2024-01-15T13:54:09;50.92;;;31.10;;
79460;SDS011;68929;42.666;23.324;2024-01-15T13:56:35;42.10;;;27.88;;
79460;SDS011;68929;42.666;23.324;2024-01-15T13:59:00;51.85;;;31.23;;
79460;SDS011;68929;42.666;23.324;2024-01-15T14:01:26;48.58;;;30.67;;
79460;SDS011;68929;42.666;23.324;2024-01-15T14:03:54;43.95;;;25.10;;
79460;SDS011;68929;42.666;23.324;2024-01-15T14:08:49;58.78;;;33.00;;
79460;SDS011;68929;42.666;23.324;2024-01-15T14:11:14;53.08;;;32.60;;
79460;SDS011;68929;42.666;23.324;2024-01-15T14:13:40;55.85;;;34.00;;
79460;SDS011;68929;42.666;23.324;2024-01-15T14:16:08;63.38;;;34.78;;
79460;SDS011;68929;42.666;23.324;2024-01-15T14:18:34;57.78;;;33.65;;